56IN weather

Casad Industrial Park Airport
New Haven, Indiana, United States

Public forecast

Using degrees Fahrenheit for public forecast. Weather courtesy of forecast.io.

METAR (pilot weather report)

Closest report is Fort Wayne International Airport, 12.9 nm (24.0 km) WSW. Retrieved 2019/04/18 18:04 UTC (13 minutes ago):

KFWA 181804Z 21021G29KT 10SM -RA BKN029 OVC090 19/16 A2961

TAF (pilot weather forecast)

Closest forecast is Fort Wayne International Airport, 12.9 nm (24.0 km) WSW. Retrieved 2019/04/18 18:22 UTC (0 seconds ago):

TAF KFWA 181720Z 1818/1918 22020G30KT P6SM -SHRA SCT015 OVC035 TEMPO 1820/1824 3SM SHRA BR OVC015 FM190000 32012G20KT 4SM SHRA BR OVC015 FM190800 36011KT 4SM -SHRA BR OVC008